Time;durP1;ratioP1;P1;durP2;ratioP2;P2;SDS_P1;SDS_P2;PMS_P1;PMS_P2;Temp;Humidity;BMP_temperature;BMP_pressure;BME280_temperature;BME280_humidity;BME280_pressure;Samples;Min_cycle;Max_cycle;Signal;HPM_P1;HPM_P2
2023/06/11 00:02:15;;;;;;;15.55;12.80;;;15.30;64.10;;;;;;5012818;28;20216;-86
2023/06/11 00:04:45;;;;;;;13.60;12.52;;;15.30;64.30;;;;;;5014116;28;20248;-86
2023/06/11 00:07:10;;;;;;;13.73;12.73;;;15.20;64.70;;;;;;5012854;28;20180;-86
2023/06/11 00:09:36;;;;;;;13.87;12.60;;;15.20;64.70;;;;;;5012953;28;20178;-86
2023/06/11 00:12:02;;;;;;;14.00;12.70;;;15.10;65.10;;;;;;5013774;28;20541;-86
2023/06/11 00:14:27;;;;;;;13.90;12.60;;;15.10;65.40;;;;;;5012717;28;20685;-85
2023/06/11 00:16:54;;;;;;;16.07;13.20;;;15.00;65.30;;;;;;5012761;28;20221;-86
2023/06/11 00:19:20;;;;;;;14.20;12.93;;;15.00;65.60;;;;;;5012500;28;20259;-87
2023/06/11 00:21:46;;;;;;;15.30;13.00;;;15.00;65.90;;;;;;5013706;28;20196;-86
2023/06/11 00:24:13;;;;;;;14.20;12.80;;;14.90;66.40;;;;;;5012577;28;20205;-86
2023/06/11 00:26:40;;;;;;;16.23;12.67;;;14.80;66.90;;;;;;5013806;28;20699;-86
2023/06/11 00:29:06;;;;;;;14.73;12.93;;;14.70;67.40;;;;;;5012525;28;20181;-86
2023/06/11 00:31:32;;;;;;;14.53;12.73;;;14.70;67.40;;;;;;5013405;28;20636;-86
2023/06/11 00:33:57;;;;;;;14.83;13.30;;;14.60;67.50;;;;;;5013059;28;20223;-86
2023/06/11 00:36:26;;;;;;;14.10;12.37;;;14.60;67.50;;;;;;5012436;28;20177;-86
2023/06/11 00:38:52;;;;;;;13.70;12.53;;;14.60;67.70;;;;;;5012195;28;20347;-86
2023/06/11 00:41:18;;;;;;;13.20;12.07;;;14.50;67.90;;;;;;5013853;28;20174;-86
2023/06/11 00:43:43;;;;;;;13.40;11.10;;;14.40;68.30;;;;;;5012302;28;20193;-86
2023/06/11 00:46:10;;;;;;;13.10;12.00;;;14.40;68.20;;;;;;5012399;28;20268;-86
2023/06/11 00:48:40;;;;;;;13.90;12.60;;;14.40;68.10;;;;;;5012204;28;20177;-86
2023/06/11 00:51:06;;;;;;;13.20;11.60;;;14.40;68.00;;;;;;5012175;28;20181;-86
2023/06/11 00:53:32;;;;;;;12.63;11.53;;;14.40;68.10;;;;;;5011960;28;20189;-85
2023/06/11 00:55:57;;;;;;;14.00;11.67;;;14.50;68.10;;;;;;5013408;28;20173;-85
2023/06/11 00:58:23;;;;;;;12.33;11.30;;;14.40;68.20;;;;;;5013564;28;20200;-85
2023/06/11 01:00:52;;;;;;;21.30;11.63;;;14.30;68.20;;;;;;5012032;28;20209;-86
2023/06/11 01:03:21;;;;;;;14.43;11.20;;;14.40;68.30;;;;;;5012076;28;20197;-86
2023/06/11 01:06:01;;;;;;;13.13;11.20;;;14.40;68.30;;;;;;5013199;28;20177;-86
2023/06/11 01:08:30;;;;;;;16.33;11.83;;;14.30;68.50;;;;;;5013436;28;20533;-85
2023/06/11 01:10:59;;;;;;;12.20;11.07;;;14.40;67.90;;;;;;5013363;28;20173;-86
2023/06/11 01:13:25;;;;;;;12.47;11.50;;;14.40;68.20;;;;;;5013054;28;20216;-86
2023/06/11 01:15:55;;;;;;;12.57;11.30;;;14.30;68.50;;;;;;5013324;28;20188;-86
2023/06/11 01:18:24;;;;;;;13.70;11.47;;;14.30;68.80;;;;;;5011974;28;20610;-86
2023/06/11 01:21:07;;;;;;;12.60;11.40;;;14.30;69.00;;;;;;5013147;28;20260;-86
2023/06/11 01:23:46;;;;;;;12.60;11.13;;;14.30;69.10;;;;;;5013071;28;20248;-86
2023/06/11 01:26:53;;;;;;;11.90;10.90;;;14.20;69.30;;;;;;5013163;28;20162;-86
2023/06/11 01:29:22;;;;;;;11.70;10.57;;;14.10;69.60;;;;;;5013298;28;20162;-85
2023/06/11 01:31:50;;;;;;;15.67;10.87;;;14.10;69.70;;;;;;5013218;28;20185;-86
2023/06/11 01:34:16;;;;;;;12.27;10.97;;;14.00;70.00;;;;;;5011910;28;20281;-86
2023/06/11 01:36:43;;;;;;;11.43;10.43;;;14.00;70.20;;;;;;5011847;28;20635;-86
2023/06/11 01:39:09;;;;;;;12.00;11.00;;;14.00;70.30;;;;;;5013180;28;20201;-86
2023/06/11 01:41:34;;;;;;;11.93;10.83;;;14.00;70.40;;;;;;5012883;28;20260;-85
2023/06/11 01:44:00;;;;;;;11.50;10.60;;;13.90;70.70;;;;;;5014525;28;20181;-86
2023/06/11 01:46:26;;;;;;;13.93;10.50;;;13.80;70.90;;;;;;5015752;28;20546;-86
2023/06/11 01:48:51;;;;;;;11.13;10.03;;;13.80;71.00;;;;;;5017042;28;20186;-86
2023/06/11 01:51:17;;;;;;;11.70;10.70;;;13.80;71.00;;;;;;5016657;28;20174;-86
2023/06/11 01:53:43;;;;;;;11.97;10.93;;;13.80;71.20;;;;;;5015290;28;20193;-86
2023/06/11 01:56:09;;;;;;;10.93;10.10;;;13.80;71.60;;;;;;5015529;28;20177;-86
2023/06/11 01:58:37;;;;;;;11.67;10.60;;;13.80;71.70;;;;;;5015241;28;20208;-86
2023/06/11 02:01:03;;;;;;;11.97;10.97;;;13.80;71.60;;;;;;5016454;28;20213;-87
2023/06/11 02:03:28;;;;;;;13.83;10.67;;;13.80;71.80;;;;;;5015070;28;20198;-86
2023/06/11 02:05:54;;;;;;;12.13;10.30;;;13.80;72.10;;;;;;5016371;28;20519;-87
2023/06/11 02:08:19;;;;;;;11.40;10.37;;;13.80;72.20;;;;;;5016578;28;20252;-86
2023/06/11 02:10:45;;;;;;;11.60;10.47;;;13.70;72.50;;;;;;5016274;28;20248;-86
2023/06/11 02:13:11;;;;;;;12.30;10.60;;;13.70;72.90;;;;;;5016127;28;20296;-86
2023/06/11 02:15:37;;;;;;;11.97;10.77;;;13.60;73.10;;;;;;5015070;28;20204;-87
2023/06/11 02:18:03;;;;;;;10.93;10.07;;;13.50;73.40;;;;;;5016232;28;20530;-86
2023/06/11 02:20:28;;;;;;;17.00;9.70;;;13.50;73.50;;;;;;5016052;28;20263;-86
2023/06/11 02:22:54;;;;;;;11.57;10.37;;;13.50;73.50;;;;;;5014827;28;20690;-86
2023/06/11 02:25:20;;;;;;;10.63;9.77;;;13.50;73.60;;;;;;5014845;28;20181;-86
2023/06/11 02:27:48;;;;;;;11.07;9.97;;;13.50;73.60;;;;;;5016021;28;20170;-86
2023/06/11 02:30:14;;;;;;;12.80;9.13;;;13.50;74.00;;;;;;5014676;28;20178;-86
2023/06/11 02:32:40;;;;;;;12.73;9.33;;;13.40;74.20;;;;;;5014479;28;20255;-86
2023/06/11 02:35:06;;;;;;;9.80;8.90;;;13.40;74.50;;;;;;5015911;28;20173;-87
2023/06/11 02:37:31;;;;;;;13.93;8.87;;;13.30;74.90;;;;;;5015717;28;20189;-87
2023/06/11 02:39:57;;;;;;;12.57;9.03;;;13.20;75.40;;;;;;5016249;28;20213;-87
2023/06/11 02:42:23;;;;;;;8.70;8.00;;;13.20;75.90;;;;;;5014495;28;20560;-87
2023/06/11 02:44:48;;;;;;;15.40;9.00;;;13.10;76.40;;;;;;5015450;28;20212;-86
2023/06/11 02:47:14;;;;;;;10.47;8.80;;;13.10;76.20;;;;;;5015611;28;20165;-86
2023/06/11 02:49:39;;;;;;;9.40;8.27;;;13.00;76.00;;;;;;5014264;28;20200;-87
2023/06/11 02:52:05;;;;;;;9.40;8.23;;;13.10;76.30;;;;;;5014136;28;20205;-87
2023/06/11 02:54:31;;;;;;;10.43;8.63;;;13.10;76.00;;;;;;5014056;28;20181;-87
2023/06/11 02:56:56;;;;;;;9.30;8.27;;;13.10;75.80;;;;;;5014680;28;20187;-86
2023/06/11 02:59:22;;;;;;;9.73;8.50;;;13.10;75.90;;;;;;5014111;28;20227;-86
2023/06/11 03:01:47;;;;;;;13.17;8.20;;;13.10;75.60;;;;;;5015328;28;20170;-86
2023/06/11 03:04:13;;;;;;;9.70;8.00;;;13.10;75.90;;;;;;5014104;28;20744;-86
2023/06/11 03:06:38;;;;;;;10.43;6.83;;;13.10;76.20;;;;;;5013857;28;20177;-86
2023/06/11 03:09:04;;;;;;;11.97;7.63;;;13.10;76.80;;;;;;5015125;28;20184;-87
2023/06/11 03:11:29;;;;;;;9.80;8.70;;;12.90;77.40;;;;;;5014198;28;20181;-87
2023/06/11 03:13:55;;;;;;;9.23;7.33;;;12.80;77.80;;;;;;5013639;28;20232;-86
2023/06/11 03:16:21;;;;;;;8.17;7.20;;;12.90;78.00;;;;;;5013825;28;20178;-86
2023/06/11 03:18:46;;;;;;;8.00;7.13;;;12.90;78.00;;;;;;5015296;28;20165;-86
2023/06/11 03:21:12;;;;;;;9.80;7.73;;;12.80;77.90;;;;;;5013590;28;20183;-87
2023/06/11 03:23:37;;;;;;;7.23;6.43;;;12.80;78.20;;;;;;5014804;28;20344;-86
2023/06/11 03:26:03;;;;;;;7.10;6.50;;;12.80;78.20;;;;;;5014793;28;20236;-87
2023/06/11 03:28:28;;;;;;;7.40;6.67;;;12.80;78.30;;;;;;5013598;28;20170;-86
2023/06/11 03:30:54;;;;;;;7.23;6.00;;;12.80;78.20;;;;;;5013390;28;20177;-86
2023/06/11 03:33:19;;;;;;;11.30;6.87;;;12.80;78.40;;;;;;5013451;28;20727;-87
2023/06/11 03:35:45;;;;;;;6.93;6.33;;;12.80;78.40;;;;;;5014822;28;20536;-86
2023/06/11 03:38:10;;;;;;;9.00;7.10;;;12.90;78.20;;;;;;5013293;28;20177;-86
2023/06/11 03:40:36;;;;;;;8.00;6.80;;;12.90;78.10;;;;;;5014479;28;20207;-87
2023/06/11 03:43:01;;;;;;;9.83;7.37;;;13.00;78.20;;;;;;5013267;28;20679;-86
2023/06/11 03:45:27;;;;;;;8.03;6.30;;;13.00;77.90;;;;;;5014704;28;20188;-86
2023/06/11 03:47:55;;;;;;;10.90;6.80;;;13.00;78.00;;;;;;5013183;28;20180;-86
2023/06/11 03:50:22;;;;;;;7.27;6.60;;;13.10;78.00;;;;;;5014708;28;20580;-87
2023/06/11 03:52:47;;;;;;;10.73;7.27;;;13.10;77.70;;;;;;5014299;28;20197;-87
2023/06/11 03:55:13;;;;;;;9.40;7.07;;;13.20;77.60;;;;;;5013145;28;20529;-86
2023/06/11 03:57:39;;;;;;;8.60;7.70;;;13.20;77.50;;;;;;5012915;28;20267;-87
2023/06/11 04:00:05;;;;;;;11.40;7.47;;;13.20;77.60;;;;;;5013064;28;20253;-86
2023/06/11 04:02:31;;;;;;;7.80;6.90;;;13.30;77.50;;;;;;5014139;28;20194;-86
2023/06/11 04:04:57;;;;;;;10.90;6.87;;;13.30;77.30;;;;;;5014241;28;20176;-86
2023/06/11 04:07:22;;;;;;;9.70;8.00;;;13.30;77.20;;;;;;5013948;28;20189;-86
2023/06/11 04:09:48;;;;;;;14.60;7.63;;;13.40;77.10;;;;;;5013857;28;20169;-86
2023/06/11 04:12:14;;;;;;;11.63;8.70;;;13.60;76.90;;;;;;5013906;28;20566;-86
2023/06/11 04:14:39;;;;;;;15.30;7.93;;;13.70;76.70;;;;;;5014041;28;20177;-86
2023/06/11 04:17:05;;;;;;;9.63;7.90;;;13.80;76.30;;;;;;5013953;28;20592;-86
2023/06/11 04:19:30;;;;;;;9.23;7.83;;;13.90;76.10;;;;;;5013806;28;20207;-86
2023/06/11 04:21:56;;;;;;;12.77;8.37;;;13.90;76.10;;;;;;5013815;28;20189;-86
2023/06/11 04:24:21;;;;;;;12.07;8.00;;;14.00;76.00;;;;;;5013895;28;20245;-86
2023/06/11 04:26:48;;;;;;;12.67;8.40;;;14.00;76.10;;;;;;5013990;28;20534;-86
2023/06/11 04:29:15;;;;;;;9.00;8.17;;;14.00;76.30;;;;;;5012502;28;20173;-86
2023/06/11 04:31:41;;;;;;;10.07;8.20;;;14.00;76.40;;;;;;5012420;28;20238;-85
2023/06/11 04:34:07;;;;;;;12.07;9.07;;;14.00;76.40;;;;;;5013741;28;20215;-86
2023/06/11 04:36:33;;;;;;;9.03;8.03;;;14.10;76.10;;;;;;5013629;28;20268;-86
2023/06/11 04:39:03;;;;;;;10.23;7.57;;;14.10;76.00;;;;;;5013631;28;20735;-86
2023/06/11 04:41:29;;;;;;;12.13;8.40;;;14.20;75.70;;;;;;5013817;28;20157;-86
2023/06/11 04:43:55;;;;;;;9.00;7.87;;;14.20;76.00;;;;;;5013366;28;20196;-86
2023/06/11 04:46:21;;;;;;;9.50;8.23;;;14.20;76.20;;;;;;5012219;28;20184;-86
2023/06/11 04:48:50;;;;;;;9.07;7.80;;;14.20;76.30;;;;;;5013454;28;20166;-86
2023/06/11 04:51:16;;;;;;;11.20;8.50;;;14.30;76.50;;;;;;5013445;28;20165;-87
2023/06/11 04:53:43;;;;;;;10.27;7.93;;;14.30;76.10;;;;;;5013399;28;20227;-87
2023/06/11 04:56:08;;;;;;;12.03;7.67;;;14.40;76.00;;;;;;5013346;28;20166;-86
2023/06/11 04:58:34;;;;;;;13.37;8.00;;;14.50;75.50;;;;;;5013371;28;20177;-87
2023/06/11 05:01:00;;;;;;;12.73;8.07;;;14.60;75.60;;;;;;5013221;28;20259;-86
2023/06/11 05:03:27;;;;;;;9.93;8.70;;;14.60;74.90;;;;;;5013353;28;20193;-87
2023/06/11 05:05:53;;;;;;;9.30;8.10;;;14.70;75.40;;;;;;5012049;28;20178;-86
2023/06/11 05:08:24;;;;;;;9.90;8.37;;;14.80;75.50;;;;;;5013236;28;20231;-86
2023/06/11 05:10:53;;;;;;;14.00;8.47;;;14.80;74.90;;;;;;5012021;28;20292;-86
2023/06/11 05:13:24;;;;;;;8.97;7.57;;;14.80;75.70;;;;;;5013069;28;20213;-86
2023/06/11 05:15:51;;;;;;;13.40;8.43;;;14.90;75.40;;;;;;5013174;28;20215;-86
2023/06/11 05:18:17;;;;;;;11.90;7.63;;;15.00;75.40;;;;;;5012270;28;20308;-86
2023/06/11 05:20:42;;;;;;;10.23;8.03;;;15.20;75.00;;;;;;5016953;28;20332;-86
2023/06/11 05:23:08;;;;;;;10.37;8.50;;;15.20;74.60;;;;;;5015878;28;20193;-86
2023/06/11 05:25:33;;;;;;;13.63;8.10;;;15.40;74.20;;;;;;5016941;28;20173;-86
2023/06/11 05:28:01;;;;;;;9.23;7.87;;;15.50;74.50;;;;;;5016030;28;20240;-86
2023/06/11 05:30:36;;;;;;;12.13;8.02;;;15.70;73.30;;;;;;5016938;28;20181;-87
2023/06/11 05:33:02;;;;;;;9.82;7.90;;;15.70;72.60;;;;;;5015638;28;20197;-86
2023/06/11 05:35:28;;;;;;;10.95;8.50;;;15.90;73.00;;;;;;5017086;28;20547;-86
2023/06/11 05:37:55;;;;;;;11.80;8.50;;;16.00;72.20;;;;;;5015631;28;20182;-86
2023/06/11 05:40:21;;;;;;;9.70;8.80;;;16.00;72.00;;;;;;5016745;28;20193;-87
2023/06/11 05:42:47;;;;;;;9.30;8.23;;;16.10;71.80;;;;;;5015496;28;20592;-86
2023/06/11 05:45:13;;;;;;;13.63;9.75;;;16.20;71.30;;;;;;5016940;28;20188;-87
2023/06/11 05:47:38;;;;;;;10.30;9.30;;;16.20;71.10;;;;;;5015513;28;20174;-86
2023/06/11 05:50:04;;;;;;;11.18;9.65;;;16.40;71.20;;;;;;5016888;28;20518;-87
2023/06/11 05:52:30;;;;;;;10.95;9.55;;;16.40;70.10;;;;;;5016463;28;20189;-87
2023/06/11 05:54:55;;;;;;;11.82;9.70;;;16.50;70.10;;;;;;5016507;28;20174;-87
2023/06/11 05:57:22;;;;;;;9.80;8.75;;;16.60;70.00;;;;;;5016482;28;20177;-86
2023/06/11 05:59:48;;;;;;;12.93;9.20;;;16.70;70.50;;;;;;5016344;28;20224;-86
2023/06/11 06:02:14;;;;;;;10.90;9.10;;;16.70;69.80;;;;;;5016396;28;20667;-86
2023/06/11 06:04:40;;;;;;;10.00;9.15;;;16.80;69.80;;;;;;5016688;28;20165;-87
2023/06/11 06:07:06;;;;;;;17.55;9.05;;;16.90;69.40;;;;;;5015017;28;20173;-86
2023/06/11 06:09:33;;;;;;;10.45;9.48;;;17.00;69.70;;;;;;5015074;28;20181;-86
2023/06/11 06:11:59;;;;;;;12.68;9.25;;;17.10;69.80;;;;;;5016159;28;20197;-86
2023/06/11 06:14:24;;;;;;;12.85;9.68;;;17.20;69.70;;;;;;5014983;28;20710;-86
2023/06/11 06:16:50;;;;;;;12.35;9.73;;;17.20;69.60;;;;;;5016457;28;20177;-86
2023/06/11 06:19:15;;;;;;;10.35;8.93;;;17.30;69.90;;;;;;5016268;28;20244;-86
2023/06/11 06:21:41;;;;;;;10.30;9.27;;;17.40;69.60;;;;;;5014653;28;20170;-85
2023/06/11 06:24:07;;;;;;;13.88;9.65;;;17.40;69.30;;;;;;5014797;28;20674;-86
2023/06/11 06:26:32;;;;;;;16.08;9.38;;;17.30;68.80;;;;;;5014965;28;20269;-86
2023/06/11 06:28:58;;;;;;;22.70;8.23;;;17.30;69.10;;;;;;5014573;28;20268;-86
2023/06/11 06:31:24;;;;;;;10.02;9.02;;;17.40;69.40;;;;;;5014735;28;20185;-86
2023/06/11 06:33:50;;;;;;;13.35;9.07;;;17.40;68.60;;;;;;5014658;28;20675;-86
2023/06/11 06:36:16;;;;;;;11.57;9.10;;;17.50;69.00;;;;;;5015708;28;20176;-86
2023/06/11 06:38:42;;;;;;;10.32;9.40;;;17.60;68.50;;;;;;5015532;28;20541;-86
2023/06/11 06:41:07;;;;;;;11.15;10.05;;;17.70;68.50;;;;;;5014430;28;20188;-87
2023/06/11 06:43:34;;;;;;;10.65;9.63;;;17.80;67.80;;;;;;5015613;28;20678;-86
2023/06/11 06:46:00;;;;;;;10.50;9.45;;;17.90;67.30;;;;;;5015470;28;20177;-87
2023/06/11 06:48:26;;;;;;;10.48;9.57;;;18.00;67.40;;;;;;5014245;28;20223;-87
2023/06/11 06:50:51;;;;;;;12.45;10.02;;;18.20;67.30;;;;;;5015418;28;20178;-87
2023/06/11 06:53:17;;;;;;;13.32;9.93;;;18.40;67.70;;;;;;5014206;28;20201;-87
2023/06/11 06:55:44;;;;;;;13.52;10.32;;;18.50;67.00;;;;;;5014881;28;20558;-87
2023/06/11 06:58:10;;;;;;;13.00;10.23;;;18.70;67.00;;;;;;5015390;28;20258;-87
2023/06/11 07:00:35;;;;;;;14.35;10.75;;;18.90;67.20;;;;;;5015216;28;20297;-87
2023/06/11 07:03:01;;;;;;;12.20;10.90;;;19.00;65.40;;;;;;5015475;28;20216;-86
2023/06/11 07:05:27;;;;;;;16.08;10.60;;;19.20;65.10;;;;;;5013997;28;20174;-87
2023/06/11 07:07:53;;;;;;;12.30;11.10;;;19.30;63.90;;;;;;5013948;28;20181;-86
2023/06/11 07:10:19;;;;;;;12.73;11.57;;;19.50;64.20;;;;;;5015026;28;20177;-87
2023/06/11 07:12:45;;;;;;;15.85;11.48;;;19.60;63.40;;;;;;5014877;28;20292;-86
2023/06/11 07:15:10;;;;;;;16.05;11.10;;;19.70;63.00;;;;;;5015167;28;20200;-87
2023/06/11 07:17:37;;;;;;;13.23;10.77;;;19.80;63.20;;;;;;5014960;28;20216;-87
2023/06/11 07:20:04;;;;;;;11.73;10.63;;;20.00;62.20;;;;;;5013965;28;20197;-87
2023/06/11 07:22:30;;;;;;;12.20;11.10;;;20.00;62.60;;;;;;5013458;28;20197;-86
2023/06/11 07:24:58;;;;;;;13.70;12.18;;;20.20;61.70;;;;;;5014836;28;20631;-87
2023/06/11 07:27:23;;;;;;;13.02;11.90;;;20.20;61.00;;;;;;5014745;28;20180;-87
2023/06/11 07:29:49;;;;;;;15.82;14.20;;;20.30;61.40;;;;;;5014742;28;20189;-87
2023/06/11 07:32:14;;;;;;;15.70;14.50;;;20.40;59.60;;;;;;5013357;28;20255;-87
2023/06/11 07:34:42;;;;;;;20.08;14.88;;;20.50;59.80;;;;;;5013459;28;20181;-87
2023/06/11 07:37:08;;;;;;;15.50;14.30;;;20.70;58.60;;;;;;5014598;28;20184;-87
2023/06/11 07:39:34;;;;;;;16.67;14.98;;;20.80;59.90;;;;;;5013267;28;20193;-86
2023/06/11 07:41:59;;;;;;;17.15;15.38;;;21.00;59.50;;;;;;5012885;28;20197;-87
2023/06/11 07:44:25;;;;;;;16.73;15.10;;;21.10;59.40;;;;;;5013342;28;20181;-87
2023/06/11 07:46:50;;;;;;;16.77;15.23;;;21.20;58.60;;;;;;5013223;28;20181;-87
2023/06/11 07:49:16;;;;;;;16.27;15.07;;;21.30;58.60;;;;;;5014325;28;20531;-87
2023/06/11 07:51:42;;;;;;;16.33;14.90;;;21.50;58.80;;;;;;5014173;28;20178;-87
2023/06/11 07:54:08;;;;;;;16.60;15.00;;;21.60;57.80;;;;;;5014264;28;20227;-87
2023/06/11 07:56:34;;;;;;;15.25;13.65;;;21.70;58.00;;;;;;5013060;28;20256;-87
2023/06/11 07:58:59;;;;;;;13.55;12.55;;;21.70;58.20;;;;;;5012950;28;20181;-87
2023/06/11 08:01:25;;;;;;;14.55;13.25;;;21.80;56.00;;;;;;5014190;28;20188;-87
2023/06/11 08:03:51;;;;;;;14.73;13.30;;;22.00;58.10;;;;;;5012810;28;20197;-87
2023/06/11 08:06:17;;;;;;;14.25;12.95;;;22.10;56.60;;;;;;5014187;28;20184;-86
2023/06/11 08:08:43;;;;;;;13.50;11.90;;;22.10;56.20;;;;;;5014044;28;20181;-87
2023/06/11 08:11:08;;;;;;;13.68;12.10;;;22.20;55.70;;;;;;5014291;28;20181;-87
2023/06/11 08:13:34;;;;;;;14.75;12.95;;;22.20;55.70;;;;;;5013796;28;20212;-87
2023/06/11 08:16:01;;;;;;;13.60;12.45;;;22.30;55.90;;;;;;5014101;28;20256;-86
2023/06/11 08:18:26;;;;;;;13.85;12.45;;;22.40;53.70;;;;;;5014152;28;20260;-87
2023/06/11 08:20:53;;;;;;;14.55;13.05;;;22.50;53.00;;;;;;5013789;28;20638;-87
2023/06/11 08:23:19;;;;;;;15.35;13.02;;;22.70;53.90;;;;;;5013691;28;20192;-87
2023/06/11 08:25:45;;;;;;;13.80;12.68;;;22.80;53.60;;;;;;5013881;28;20170;-87
2023/06/11 08:28:11;;;;;;;14.27;13.10;;;22.90;53.50;;;;;;5013797;28;20177;-87
2023/06/11 08:30:36;;;;;;;16.73;12.80;;;23.10;54.30;;;;;;5012346;28;20272;-87
2023/06/11 08:33:02;;;;;;;14.98;13.70;;;23.10;51.00;;;;;;5013604;28;20560;-87
2023/06/11 08:35:27;;;;;;;15.38;13.15;;;23.20;51.30;;;;;;5013651;28;20181;-87
2023/06/11 08:37:53;;;;;;;14.77;13.15;;;23.20;50.20;;;;;;5012532;28;20173;-87
2023/06/11 08:40:20;;;;;;;13.63;12.73;;;23.30;50.90;;;;;;5012253;28;20201;-87
2023/06/11 08:42:47;;;;;;;14.18;13.07;;;23.40;52.10;;;;;;5013510;28;20185;-87
2023/06/11 08:45:12;;;;;;;13.90;12.90;;;23.50;51.70;;;;;;5012201;28;20272;-87
2023/06/11 08:47:41;;;;;;;13.82;12.73;;;23.50;51.50;;;;;;5013447;28;20708;-87
2023/06/11 08:50:07;;;;;;;14.20;12.75;;;23.60;52.20;;;;;;5013444;28;20228;-86
2023/06/11 08:52:37;;;;;;;13.98;12.55;;;23.70;50.90;;;;;;5011947;28;20198;-87
2023/06/11 08:55:03;;;;;;;13.98;12.88;;;23.70;50.50;;;;;;5013379;28;20181;-87
2023/06/11 08:57:30;;;;;;;14.27;12.88;;;23.70;51.90;;;;;;5012098;28;20212;-87
2023/06/11 08:59:56;;;;;;;14.57;13.13;;;23.90;50.60;;;;;;5012329;28;20205;-86
2023/06/11 09:02:21;;;;;;;13.95;12.80;;;24.00;49.90;;;;;;5013590;28;20181;-87
2023/06/11 09:04:47;;;;;;;13.45;12.23;;;24.00;48.90;;;;;;5013292;28;20600;-87
2023/06/11 09:07:22;;;;;;;16.23;13.20;;;24.10;50.70;;;;;;5013540;28;20186;-87
2023/06/11 09:10:01;;;;;;;14.23;12.95;;;24.20;50.50;;;;;;5012359;28;20181;-87
2023/06/11 09:12:27;;;;;;;14.60;13.20;;;24.20;49.00;;;;;;5011814;28;20595;-88
2023/06/11 09:14:53;;;;;;;14.57;13.43;;;24.40;48.70;;;;;;5013526;28;20212;-87
2023/06/11 09:17:19;;;;;;;15.65;12.68;;;24.60;49.10;;;;;;5013227;28;20173;-87
2023/06/11 09:19:45;;;;;;;13.70;12.68;;;24.60;48.00;;;;;;5012033;28;20248;-87
2023/06/11 09:22:10;;;;;;;16.40;13.38;;;24.70;48.10;;;;;;5013169;28;20284;-87
2023/06/11 09:24:37;;;;;;;14.40;12.98;;;24.70;47.60;;;;;;5011891;28;20264;-87
2023/06/11 09:27:05;;;;;;;14.80;12.70;;;24.90;48.00;;;;;;5011939;28;20272;-88
2023/06/11 09:29:31;;;;;;;15.02;13.20;;;25.00;47.50;;;;;;5012961;28;20261;-88
2023/06/11 09:32:07;;;;;;;13.27;12.18;;;25.00;47.60;;;;;;5012982;28;20276;-87
2023/06/11 09:34:33;;;;;;;21.30;19.58;;;25.10;46.30;;;;;;5011865;28;20573;-87
2023/06/11 09:37:00;;;;;;;22.15;20.17;;;25.00;48.80;;;;;;5011834;28;20174;-87
2023/06/11 09:39:25;;;;;;;23.55;20.30;;;25.10;45.90;;;;;;5011709;28;20208;-87
2023/06/11 09:41:52;;;;;;;23.48;21.60;;;24.70;47.40;;;;;;5012884;28;20177;-87
2023/06/11 09:44:18;;;;;;;23.92;21.40;;;24.70;47.70;;;;;;5012864;28;20249;-87
2023/06/11 09:46:46;;;;;;;23.75;21.42;;;24.70;48.10;;;;;;5011614;28;20224;-87
2023/06/11 09:49:13;;;;;;;22.67;21.05;;;24.80;48.10;;;;;;5012870;28;20271;-87
2023/06/11 09:51:39;;;;;;;22.90;21.00;;;25.10;47.60;;;;;;5012804;28;20170;-87
2023/06/11 09:54:07;;;;;;;21.08;19.63;;;25.20;46.10;;;;;;5011629;28;20181;-87
2023/06/11 09:56:35;;;;;;;21.92;20.35;;;25.40;46.20;;;;;;5012731;28;20169;-87
2023/06/11 09:59:02;;;;;;;21.65;19.92;;;25.40;47.80;;;;;;5011493;28;20192;-87
2023/06/11 10:01:29;;;;;;;14.30;12.90;;;25.60;48.20;;;;;;5011555;28;20180;-86
2023/06/11 10:03:55;;;;;;;14.75;13.45;;;25.60;46.10;;;;;;5011570;28;20568;-87
2023/06/11 10:06:27;;;;;;;15.27;13.57;;;25.70;46.50;;;;;;5014932;28;20220;-87
2023/06/11 10:08:55;;;;;;;14.90;13.40;;;25.70;45.50;;;;;;5016598;28;20478;-87
2023/06/11 10:11:23;;;;;;;13.75;12.65;;;25.70;46.30;;;;;;5016331;28;20536;-87
2023/06/11 10:13:59;;;;;;;14.15;12.95;;;25.80;45.50;;;;;;5016056;28;20679;-88
2023/06/11 10:16:26;;;;;;;14.65;13.25;;;26.00;47.50;;;;;;5014904;28;20183;-87
2023/06/11 10:19:06;;;;;;;14.55;13.13;;;25.80;44.80;;;;;;5014803;28;20169;-87
2023/06/11 10:21:49;;;;;;;14.43;13.18;;;25.80;47.10;;;;;;5016085;28;20165;-87
2023/06/11 10:24:26;;;;;;;14.40;12.90;;;25.90;45.70;;;;;;5014800;28;20236;-87
2023/06/11 10:27:13;;;;;;;13.85;12.70;;;26.00;47.20;;;;;;5015994;28;20173;-87
2023/06/11 10:29:46;;;;;;;14.85;13.48;;;26.00;46.00;;;;;;5015847;28;20181;-87
2023/06/11 10:32:20;;;;;;;16.05;13.35;;;26.20;45.00;;;;;;5014529;28;20567;-87
2023/06/11 10:34:57;;;;;;;15.00;13.50;;;26.30;45.60;;;;;;5016122;28;20170;-87
2023/06/11 10:37:28;;;;;;;15.38;13.65;;;26.30;41.90;;;;;;5015738;28;20169;-87
2023/06/11 10:39:54;;;;;;;13.95;12.85;;;26.50;43.90;;;;;;5015686;28;20695;-88
2023/06/11 10:42:26;;;;;;;14.88;13.30;;;26.60;44.50;;;;;;5014361;28;20194;-87
2023/06/11 10:44:57;;;;;;;15.93;13.27;;;26.70;42.90;;;;;;5015631;28;20173;-87
2023/06/11 10:47:22;;;;;;;17.90;13.93;;;26.70;42.70;;;;;;5014369;28;20170;-87
2023/06/11 10:49:48;;;;;;;16.23;13.65;;;26.70;42.00;;;;;;5016002;28;20268;-87
2023/06/11 10:52:14;;;;;;;16.35;13.68;;;26.70;42.10;;;;;;5015602;28;20609;-87
2023/06/11 10:54:43;;;;;;;15.43;14.05;;;26.80;42.50;;;;;;5014185;28;20266;-87
2023/06/11 10:57:08;;;;;;;14.60;13.45;;;26.90;42.10;;;;;;5015331;28;20735;-88
2023/06/11 10:59:36;;;;;;;15.95;13.82;;;27.00;42.20;;;;;;5014813;28;20300;-87
2023/06/11 11:02:01;;;;;;;15.25;13.43;;;27.00;41.90;;;;;;5014072;28;20567;-87
2023/06/11 11:04:28;;;;;;;15.18;13.50;;;27.00;42.50;;;;;;5015582;28;20257;-88
2023/06/11 11:07:08;;;;;;;14.98;13.68;;;27.10;42.30;;;;;;5015126;28;20176;-88
2023/06/11 11:09:33;;;;;;;14.43;13.23;;;27.10;41.10;;;;;;5015312;28;20240;-87
2023/06/11 11:11:59;;;;;;;15.13;13.70;;;27.10;41.10;;;;;;5013677;28;20684;-87
2023/06/11 11:14:27;;;;;;;14.30;13.10;;;27.20;41.20;;;;;;5015156;28;20162;-87
2023/06/11 11:16:55;;;;;;;15.07;13.68;;;27.20;39.20;;;;;;5013077;28;20260;-88
2023/06/11 11:19:24;;;;;;;15.00;13.52;;;27.10;41.00;;;;;;5013686;28;20301;-87
2023/06/11 11:21:51;;;;;;;14.60;13.48;;;27.20;41.50;;;;;;5013716;28;20169;-87
2023/06/11 11:24:16;;;;;;;14.05;13.13;;;27.30;38.60;;;;;;5013591;28;20176;-88
2023/06/11 11:26:42;;;;;;;14.60;13.50;;;27.50;38.80;;;;;;5015151;28;20183;-87
2023/06/11 11:29:08;;;;;;;15.23;13.98;;;27.60;39.70;;;;;;5013665;28;20277;-87
2023/06/11 11:31:35;;;;;;;15.40;13.68;;;27.70;38.50;;;;;;5014676;28;20245;-87
2023/06/11 11:34:01;;;;;;;15.23;13.45;;;27.50;37.50;;;;;;5013999;28;20177;-88
2023/06/11 11:36:26;;;;;;;15.25;14.05;;;27.60;38.00;;;;;;5014577;28;20177;-87
2023/06/11 11:38:52;;;;;;;15.90;14.30;;;27.60;35.70;;;;;;5014674;28;20173;-87
2023/06/11 11:41:22;;;;;;;14.23;13.23;;;27.60;36.70;;;;;;5013233;28;20213;-87
2023/06/11 11:43:48;;;;;;;14.52;13.23;;;27.50;36.20;;;;;;5014622;28;20243;-88
2023/06/11 11:46:18;;;;;;;15.52;14.32;;;27.60;36.70;;;;;;5014442;28;20216;-87
2023/06/11 11:48:44;;;;;;;15.57;14.35;;;27.70;36.70;;;;;;5013213;28;20173;-88
2023/06/11 11:51:13;;;;;;;15.60;14.50;;;27.70;35.40;;;;;;5013249;28;20178;-87
2023/06/11 11:53:39;;;;;;;15.52;14.43;;;27.90;36.40;;;;;;5014351;28;20284;-87
2023/06/11 11:56:05;;;;;;;15.40;14.07;;;27.70;35.50;;;;;;5014293;28;20248;-88
2023/06/11 11:58:41;;;;;;;15.27;14.00;;;27.70;35.20;;;;;;5012998;28;20280;-87
2023/06/11 12:01:16;;;;;;;15.48;14.38;;;27.90;35.90;;;;;;5013024;28;20201;-87
2023/06/11 12:03:41;;;;;;;15.98;14.52;;;27.80;35.90;;;;;;5012920;28;20288;-88
2023/06/11 12:06:08;;;;;;;16.23;14.90;;;28.00;35.90;;;;;;5012942;28;20208;-88
2023/06/11 12:08:35;;;;;;;15.13;13.98;;;28.00;36.10;;;;;;5014106;28;20174;-88
2023/06/11 12:11:03;;;;;;;15.57;14.05;;;28.00;35.10;;;;;;5012826;28;20188;-87
2023/06/11 12:13:29;;;;;;;15.10;13.75;;;28.20;36.00;;;;;;5012861;28;20710;-87
2023/06/11 12:15:55;;;;;;;15.02;13.60;;;28.20;35.10;;;;;;5014010;28;20177;-88
2023/06/11 12:18:20;;;;;;;15.50;13.95;;;28.20;35.00;;;;;;5013907;28;20181;-87
2023/06/11 12:20:46;;;;;;;15.00;13.80;;;28.40;34.80;;;;;;5012591;28;20228;-87
2023/06/11 12:23:12;;;;;;;14.05;13.07;;;28.40;35.60;;;;;;5012698;28;20667;-87
2023/06/11 12:25:39;;;;;;;14.48;13.52;;;28.30;34.10;;;;;;5014040;28;20165;-88
2023/06/11 12:28:04;;;;;;;15.18;13.82;;;28.50;36.20;;;;;;5013716;28;20180;-88
2023/06/11 12:30:31;;;;;;;14.95;13.75;;;28.50;33.60;;;;;;5013741;28;20177;-87